Time;durP1;ratioP1;P1;durP2;ratioP2;P2;SDS_P1;SDS_P2;PMS_P1;PMS_P2;Temp;Humidity;BMP_temperature;BMP_pressure;BME280_temperature;BME280_humidity;BME280_pressure;Samples;Min_cycle;Max_cycle;Signal;HPM_P1;HPM_P2
2023/09/02 00:01:47;;;;;;;3.35;3.08;;;;;;;20.25;100.00;100898.09;4986837;28;20088;-75
2023/09/02 00:04:13;;;;;;;0.57;0.57;;;;;;;19.56;100.00;100807.91;4987556;28;20494;-76
2023/09/02 00:06:38;;;;;;;0.75;0.45;;;;;;;19.40;100.00;100793.31;4981495;28;20133;-76
2023/09/02 00:09:04;;;;;;;0.85;0.73;;;;;;;19.64;100.00;100825.44;4987611;28;20133;-77
2023/09/02 00:11:29;;;;;;;13.25;2.53;;;;;;;19.54;100.00;100817.72;4985554;28;20125;-77
2023/09/02 00:13:55;;;;;;;2.05;1.40;;;;;;;19.88;100.00;100880.63;4983336;28;20034;-75
2023/09/02 00:16:20;;;;;;;1.00;0.90;;;;;;;19.77;100.00;100864.13;4987156;28;20039;-75
2023/09/02 00:18:46;;;;;;;2.17;1.98;;;;;;;19.32;100.00;100790.03;4987359;28;20046;-76
2023/09/02 00:21:12;;;;;;;0.82;0.75;;;;;;;19.57;100.00;100838.06;4986408;28;20083;-76
2023/09/02 00:23:45;;;;;;;0.77;0.68;;;;;;;19.89;100.00;100877.03;4984099;28;20046;-75
2023/09/02 00:26:11;;;;;;;0.70;0.57;;;;;;;19.43;100.00;100801.19;4987574;28;20033;-76
2023/09/02 00:28:36;;;;;;;0.88;0.88;;;;;;;19.47;100.00;100808.19;4987561;28;20033;-77
2023/09/02 00:31:02;;;;;;;0.47;0.45;;;;;;;19.35;100.00;100790.78;4981996;28;20045;-77
2023/09/02 00:33:27;;;;;;;0.30;0.30;;;;;;;19.96;100.00;100896.38;4985143;28;20058;-76
2023/09/02 00:35:52;;;;;;;1.85;1.40;;;;;;;20.00;100.00;100884.72;4981291;28;20070;-77
2023/09/02 00:38:18;;;;;;;0.73;0.50;;;;;;;20.02;100.00;100898.84;4986408;28;20526;-75
2023/09/02 00:40:51;;;;;;;1.17;0.90;;;;;;;19.93;100.00;100896.47;4981640;28;20112;-76
2023/09/02 00:43:16;;;;;;;1.02;0.98;;;;;;;19.50;100.00;100785.91;4986233;28;20093;-74
2023/09/02 00:45:42;;;;;;;0.93;0.40;;;;;;;19.43;100.00;100806.53;4985817;28;20046;-75
2023/09/02 00:48:08;;;;;;;0.57;0.38;;;;;;;19.55;100.00;100810.59;4977958;28;20047;-76
2023/09/02 00:50:37;;;;;;;0.80;0.75;;;;;;;19.70;100.00;100841.25;4980219;28;20042;-74
2023/09/02 00:53:03;;;;;;;0.95;0.95;;;;;;;19.24;100.00;100781.41;4977151;28;20035;-76
2023/09/02 00:55:29;;;;;;;0.85;0.73;;;;;;;19.84;100.00;100883.44;4982166;28;20065;-75
2023/09/02 00:57:56;;;;;;;0.63;0.30;;;;;;;19.17;100.00;100797.56;4985319;28;20498;-73
2023/09/02 01:00:22;;;;;;;1.77;1.67;;;;;;;19.78;100.00;100893.38;4987031;28;20081;-75
2023/09/02 01:02:49;;;;;;;0.40;0.40;;;;;;;19.76;100.00;100904.97;4982414;28;20042;-75
2023/09/02 01:05:15;;;;;;;1.02;0.85;;;;;;;19.83;100.00;100911.88;4986954;28;20117;-76
2023/09/02 01:07:43;;;;;;;0.22;0.22;;;;;;;19.35;100.00;100838.69;4983938;28;20474;-75
2023/09/02 01:10:08;;;;;;;1.55;1.10;;;;;;;19.57;100.00;100901.94;4986226;28;20042;-76
2023/09/02 01:12:34;;;;;;;1.58;0.50;;;;;;;19.44;100.00;100876.63;5017115;28;20038;-75
2023/09/02 01:15:00;;;;;;;0.80;0.32;;;;;;;18.93;100.00;100780.50;4981604;28;20061;-75
2023/09/02 01:17:25;;;;;;;0.38;0.22;;;;;;;18.98;100.00;100794.53;4985124;28;20147;-75
2023/09/02 01:19:56;;;;;;;1.10;0.80;;;;;;;19.56;100.00;100893.09;4976390;28;20041;-75
2023/09/02 01:22:46;;;;;;;0.75;0.75;;;;;;;19.53;100.00;100909.16;4981744;28;20088;-75
2023/09/02 01:25:21;;;;;;;0.82;0.47;;;;;;;19.57;100.00;100916.16;4978136;28;20542;-75
2023/09/02 01:27:55;;;;;;;0.68;0.55;;;;;;;18.92;100.00;100805.38;4984627;28;20419;-75
2023/09/02 01:30:26;;;;;;;0.70;0.68;;;;;;;18.99;100.00;100792.78;4982685;28;20085;-75
2023/09/02 01:32:54;;;;;;;3.03;2.40;;;;;;;19.41;100.00;100904.19;4976567;28;20054;-75
2023/09/02 01:35:27;;;;;;;2.70;1.27;;;;;;;19.17;100.00;100872.06;4975911;28;20038;-74
2023/09/02 01:37:56;;;;;;;0.20;0.20;;;;;;;19.32;100.00;100896.47;4984909;28;20049;-75
2023/09/02 01:40:25;;;;;;;0.30;0.30;;;;;;;19.21;100.00;100883.47;4978804;28;20057;-77
2023/09/02 01:42:52;;;;;;;0.45;0.40;;;;;;;19.28;100.00;100893.03;4985983;28;20058;-75
2023/09/02 01:45:19;;;;;;;0.75;0.75;;;;;;;19.13;100.00;100890.81;4977810;28;20046;-75
2023/09/02 01:47:47;;;;;;;1.02;0.77;;;;;;;19.22;100.00;100894.97;4985011;28;20052;-74
2023/09/02 01:50:14;;;;;;;1.65;1.55;;;;;;;19.24;100.00;100909.13;4988892;28;20038;-75
2023/09/02 01:52:41;;;;;;;0.85;0.80;;;;;;;19.25;100.00;100919.72;4985236;28;20121;-74
2023/09/02 01:55:08;;;;;;;1.00;0.60;;;;;;;19.17;100.00;100919.03;4979586;28;20457;-74
2023/09/02 01:57:34;;;;;;;0.65;0.57;;;;;;;18.50;100.00;100800.28;4981388;28;20043;-74
2023/09/02 01:59:59;;;;;;;2.15;1.77;;;;;;;18.49;100.00;100803.84;4979608;28;20046;-75
2023/09/02 02:02:25;;;;;;;1.02;0.77;;;;;;;18.39;100.00;100799.69;4982258;28;20088;-75
2023/09/02 02:04:55;;;;;;;0.57;0.40;;;;;;;19.06;100.00;100913.13;4980992;28;20026;-73
2023/09/02 02:07:26;;;;;;;1.92;1.50;;;;;;;18.45;100.00;100806.59;4979169;28;20134;-74
2023/09/02 02:09:56;;;;;;;0.38;0.32;;;;;;;19.10;100.00;100907.69;4984450;28;20069;-75
2023/09/02 02:12:22;;;;;;;1.30;1.00;;;;;;;18.50;100.00;100821.53;4980170;28;20077;-77
2023/09/02 02:14:47;;;;;;;1.40;0.88;;;;;;;18.52;100.00;100808.22;4973714;28;21195;-75
2023/09/02 02:17:13;;;;;;;0.30;0.30;;;;;;;18.93;100.00;100905.50;4984848;28;20030;-76
2023/09/02 02:19:39;;;;;;;1.23;1.13;;;;;;;18.74;100.00;100856.34;4986570;28;20516;-74
2023/09/02 02:22:05;;;;;;;0.47;0.47;;;;;;;19.13;100.00;100898.78;4985502;28;20047;-74
2023/09/02 02:24:30;;;;;;;1.35;0.65;;;;;;;18.59;100.00;100825.75;4982941;28;20161;-75
2023/09/02 02:26:56;;;;;;;1.48;1.15;;;;;;;19.15;100.00;100918.22;4980882;28;20561;-73
2023/09/02 02:29:21;;;;;;;0.75;0.75;;;;;;;19.00;100.00;100903.56;4986233;28;20058;-76
2023/09/02 02:31:47;;;;;;;1.40;1.00;;;;;;;18.51;100.00;100814.44;4979113;28;20094;-76
2023/09/02 02:34:13;;;;;;;0.38;0.38;;;;;;;18.65;100.00;100817.59;4983181;28;20054;-76
2023/09/02 02:36:38;;;;;;;0.38;0.38;;;;;;;18.93;100.00;100848.78;4985030;28;20050;-75
2023/09/02 02:39:04;;;;;;;2.47;1.42;;;;;;;19.12;100.00;100889.91;4985495;28;20614;-74
2023/09/02 02:41:31;;;;;;;0.57;0.32;;;;;;;19.48;100.00;100919.06;4983900;28;20105;-76
2023/09/02 02:43:56;;;;;;;1.30;1.13;;;;;;;18.71;100.00;100822.75;4987513;28;20196;-75
2023/09/02 02:46:22;;;;;;;1.67;1.15;;;;;;;19.23;100.00;100910.03;4987814;28;20153;-76
2023/09/02 02:48:47;;;;;;;0.30;0.30;;;;;;;19.28;100.00;100924.09;4986197;28;20050;-75
2023/09/02 02:51:12;;;;;;;2.03;1.77;;;;;;;19.26;100.00;100921.47;4988410;28;20061;-76
2023/09/02 02:53:38;;;;;;;0.73;0.50;;;;;;;18.71;100.00;100827.22;4987243;28;20046;-75
2023/09/02 02:56:03;;;;;;;0.95;0.93;;;;;;;19.27;100.00;100922.31;4980885;28;20784;-77
2023/09/02 02:58:31;;;;;;;1.23;1.13;;;;;;;18.66;100.00;100835.31;4988397;28;20042;-75
2023/09/02 03:01:07;;;;;;;0.82;0.80;;;;;;;18.99;100.00;100893.84;4978343;28;20054;-75
2023/09/02 03:03:35;;;;;;;0.68;0.60;;;;;;;18.54;100.00;100823.22;4986924;28;20065;-76
2023/09/02 03:06:02;;;;;;;1.88;1.30;;;;;;;18.92;100.00;100879.84;4987613;28;20085;-75
2023/09/02 03:08:28;;;;;;;1.30;1.20;;;;;;;19.03;100.00;100913.22;4987560;28;20026;-76
2023/09/02 03:11:01;;;;;;;0.75;0.70;;;;;;;19.03;100.00;100900.78;4985008;28;20034;-75
2023/09/02 03:13:30;;;;;;;1.05;0.52;;;;;;;19.08;100.00;100928.19;4979815;28;20105;-74
2023/09/02 03:15:56;;;;;;;0.63;0.63;;;;;;;19.05;100.00;100919.38;4988045;28;20102;-74
2023/09/02 03:18:22;;;;;;;1.83;1.25;;;;;;;19.08;100.00;100927.28;4981809;28;20078;-75
2023/09/02 03:20:48;;;;;;;0.77;0.70;;;;;;;18.48;100.00;100834.00;4984501;28;20042;-74
2023/09/02 03:23:14;;;;;;;0.63;0.52;;;;;;;19.07;100.00;100934.38;4984484;28;20668;-75
2023/09/02 03:25:40;;;;;;;0.68;0.65;;;;;;;18.89;100.00;100922.44;4986488;28;20030;-77
2023/09/02 03:28:05;;;;;;;0.68;0.68;;;;;;;18.40;100.00;100838.63;4980703;28;20046;-76
2023/09/02 03:30:31;;;;;;;1.00;0.95;;;;;;;18.46;100.00;100845.56;4980416;28;20244;-74
2023/09/02 03:32:57;;;;;;;0.60;0.60;;;;;;;19.00;100.00;100939.94;4982784;28;20057;-76
2023/09/02 03:35:22;;;;;;;0.43;0.40;;;;;;;18.44;100.00;100853.56;4988302;28;20619;-76
2023/09/02 03:37:48;;;;;;;0.50;0.50;;;;;;;18.76;100.00;100924.56;4988020;28;20066;-74
2023/09/02 03:40:13;;;;;;;0.50;0.47;;;;;;;18.91;100.00;100941.03;4987809;28;20042;-74
2023/09/02 03:42:39;;;;;;;0.85;0.85;;;;;;;18.31;100.00;100838.88;4987100;28;20752;-75
2023/09/02 03:45:05;;;;;;;0.70;0.70;;;;;;;19.08;100.00;100937.91;4986037;28;20050;-75
2023/09/02 03:47:31;;;;;;;0.70;0.55;;;;;;;18.92;100.00;100951.63;4986445;28;20046;-76
2023/09/02 03:49:58;;;;;;;0.82;0.82;;;;;;;18.77;100.00;100925.44;4988669;28;20534;-74
2023/09/02 03:52:23;;;;;;;0.60;0.50;;;;;;;18.92;100.00;100948.13;4983959;28;20534;-75
2023/09/02 03:54:49;;;;;;;1.10;0.90;;;;;;;18.74;100.00;100928.13;4987593;28;20053;-75
2023/09/02 03:57:14;;;;;;;2.83;1.13;;;;;;;18.25;100.00;100839.88;4986460;28;20085;-75
2023/09/02 03:59:40;;;;;;;0.77;0.77;;;;;;;18.80;100.00;100932.44;4982211;28;20384;-74
2023/09/02 04:02:05;;;;;;;0.45;0.45;;;;;;;18.27;100.00;100855.78;4982892;28;20038;-76
2023/09/02 04:04:31;;;;;;;2.45;1.33;;;;;;;18.89;100.00;100980.06;4980177;28;20061;-75
2023/09/02 04:06:56;;;;;;;0.50;0.45;;;;;;;18.61;100.00;100940.84;4979602;28;20194;-75
2023/09/02 04:09:22;;;;;;;1.17;0.52;;;;;;;18.58;100.00;100940.06;4983367;28;20061;-76
2023/09/02 04:11:47;;;;;;;0.68;0.68;;;;;;;18.46;100.00;100912.88;4996939;28;20483;-77
2023/09/02 04:14:13;;;;;;;3.47;2.65;;;;;;;18.24;100.00;100882.41;4983871;28;20022;-74
2023/09/02 04:16:38;;;;;;;0.52;0.43;;;;;;;18.20;100.00;100856.84;4987733;28;20033;-74
2023/09/02 04:19:04;;;;;;;0.68;0.35;;;;;;;18.64;100.00;100940.78;4984091;28;20047;-76
2023/09/02 04:21:33;;;;;;;2.13;0.98;;;;;;;18.73;100.00;100966.25;4987208;28;20050;-75
2023/09/02 04:23:58;;;;;;;0.98;0.60;;;;;;;18.30;100.00;100898.22;4983436;28;20034;-77
2023/09/02 04:26:24;;;;;;;0.70;0.50;;;;;;;18.40;100.00;100906.84;4986888;28;20466;-75
2023/09/02 04:28:50;;;;;;;0.93;0.40;;;;;;;18.55;100.00;100938.38;4987614;28;20034;-76
2023/09/02 04:31:16;;;;;;;0.20;0.20;;;;;;;18.20;100.00;100878.09;4984943;28;20053;-77
2023/09/02 04:33:41;;;;;;;0.80;0.77;;;;;;;18.83;100.00;100988.22;4975969;28;20176;-75
2023/09/02 04:36:07;;;;;;;3.20;1.05;;;;;;;18.74;100.00;100990.16;4987537;28;20093;-76
2023/09/02 04:38:33;;;;;;;0.40;0.40;;;;;;;18.21;100.00;100894.00;4982385;28;20049;-76
2023/09/02 04:41:03;;;;;;;1.50;1.40;;;;;;;18.39;100.00;100919.25;4990153;28;20038;-75
2023/09/02 04:43:29;;;;;;;1.05;1.00;;;;;;;18.82;100.00;100986.47;4983247;28;20054;-76
2023/09/02 04:45:54;;;;;;;0.60;0.60;;;;;;;18.27;100.00;100904.47;4980475;28;20097;-77
2023/09/02 04:48:20;;;;;;;1.65;1.52;;;;;;;18.18;100.00;100887.91;4978742;28;20701;-76
2023/09/02 04:50:53;;;;;;;0.85;0.82;;;;;;;18.66;100.00;100960.25;4983223;28;20046;-76
2023/09/02 04:53:18;;;;;;;1.45;1.35;;;;;;;18.71;100.00;100971.63;4983370;28;20045;-76
2023/09/02 04:55:44;;;;;;;0.77;0.77;;;;;;;18.42;100.00;100907.69;4986111;28;20026;-74
2023/09/02 04:58:09;;;;;;;0.30;0.30;;;;;;;19.04;100.00;100986.81;4986504;28;20054;-76
2023/09/02 05:00:35;;;;;;;1.02;0.70;;;;;;;19.06;100.00;100976.97;4985489;28;20058;-77
2023/09/02 05:03:01;;;;;;;0.57;0.57;;;;;;;18.89;100.00;100926.91;4980975;28;20030;-75
2023/09/02 05:05:29;;;;;;;0.38;0.30;;;;;;;18.79;100.00;100917.41;4985737;28;20152;-75
2023/09/02 05:07:55;;;;;;;0.73;0.73;;;;;;;19.10;100.00;100925.44;4979965;28;20477;-74
2023/09/02 05:10:21;;;;;;;0.40;0.40;;;;;;;19.16;100.00;100896.03;4983262;28;20057;-76
2023/09/02 05:12:46;;;;;;;0.68;0.68;;;;;;;19.88;100.00;100979.19;4986204;28;20038;-74
2023/09/02 05:15:12;;;;;;;1.42;0.95;;;;;;;20.13;100.00;100925.16;4981518;28;20054;-74
2023/09/02 05:17:37;;;;;;;2.90;0.73;;;;;;;20.87;100.00;100991.19;4980345;28;20046;-76
2023/09/02 05:20:04;;;;;;;0.90;0.90;;;;;;;21.56;100.00;100987.06;4984486;28;20030;-76
2023/09/02 05:22:30;;;;;;;1.55;1.45;;;;;;;22.41;100.00;101008.84;4989152;28;20046;-75
2023/09/02 05:24:55;;;;;;;0.90;0.90;;;;;;;22.66;100.00;100923.97;4983285;28;20046;-75
2023/09/02 05:27:21;;;;;;;2.00;0.98;;;;;;;22.44;100.00;100872.31;4981362;28;20046;-75
2023/09/02 05:29:47;;;;;;;0.73;0.73;;;;;;;24.15;100.00;100970.94;4985373;28;20100;-76
2023/09/02 05:32:13;;;;;;;0.47;0.47;;;;;;;23.02;100.00;100914.47;4976885;28;20491;-76
2023/09/02 05:34:40;;;;;;;0.30;0.30;;;;;;;24.77;99.74;101009.09;4976224;28;20058;-76
2023/09/02 05:37:05;;;;;;;1.05;0.98;;;;;;;24.14;97.41;101024.63;4985643;28;20109;-76
2023/09/02 05:39:31;;;;;;;0.82;0.75;;;;;;;22.57;100.00;100934.19;4983774;28;20157;-75
2023/09/02 05:41:56;;;;;;;0.90;0.75;;;;;;;23.65;100.00;100907.16;4979336;28;20054;-75
2023/09/02 05:44:21;;;;;;;0.63;0.63;;;;;;;25.45;90.38;101011.03;4986003;28;20027;-77
2023/09/02 05:46:47;;;;;;;0.40;0.40;;;;;;;26.37;79.53;101016.81;4995874;28;20782;-76
2023/09/02 05:49:13;;;;;;;0.82;0.82;;;;;;;26.37;75.84;100935.22;4977093;28;20498;-76
2023/09/02 05:51:39;;;;;;;0.30;0.20;;;;;;;25.65;79.19;101018.91;4979629;28;20071;-77
2023/09/02 05:54:06;;;;;;;0.30;0.25;;;;;;;25.22;79.72;100947.78;4985601;28;20047;-75
2023/09/02 05:56:33;;;;;;;1.00;1.00;;;;;;;26.91;71.34;101011.94;4986540;28;20047;-76
2023/09/02 05:58:59;;;;;;;0.82;0.70;;;;;;;25.63;78.00;100995.75;4984594;28;20061;-75
2023/09/02 06:01:25;;;;;;;2.75;0.88;;;;;;;26.01;71.92;100918.41;4985451;28;20030;-75
2023/09/02 06:03:50;;;;;;;2.63;1.95;;;;;;;25.25;78.91;100937.72;4985566;28;20050;-76
2023/09/02 06:06:16;;;;;;;0.45;0.45;;;;;;;26.24;72.73;100919.75;4985526;28;20051;-75
2023/09/02 06:08:41;;;;;;;1.55;1.20;;;;;;;24.85;81.32;100944.28;4985200;28;20058;-76
2023/09/02 06:11:07;;;;;;;0.30;0.30;;;;;;;23.58;97.22;100956.59;5015231;28;20038;-75
2023/09/02 06:13:32;;;;;;;1.17;1.00;;;;;;;25.73;87.59;101025.69;4975492;28;20141;-75
2023/09/02 06:16:00;;;;;;;2.03;1.67;;;;;;;25.70;78.62;100967.59;4980664;28;20081;-77
2023/09/02 06:18:25;;;;;;;1.70;1.10;;;;;;;24.12;88.62;100951.44;4989071;28;20367;-76
2023/09/02 06:20:51;;;;;;;0.25;0.25;;;;;;;25.42;84.28;101030.00;4986774;28;21093;-76
2023/09/02 06:23:17;;;;;;;2.55;1.23;;;;;;;25.57;81.17;100955.78;4983681;28;20038;-76
2023/09/02 06:25:42;;;;;;;0.75;0.75;;;;;;;26.27;75.39;101039.78;4981043;28;20069;-76
2023/09/02 06:28:08;;;;;;;3.40;1.20;;;;;;;24.71;78.74;100950.34;4988008;28;20065;-75
2023/09/02 06:30:36;;;;;;;1.30;0.93;;;;;;;25.43;79.29;100969.97;4986989;28;20397;-75
2023/09/02 06:33:02;;;;;;;0.55;0.55;;;;;;;25.93;79.11;101021.97;4977787;28;20049;-77
2023/09/02 06:35:30;;;;;;;0.95;0.93;;;;;;;25.85;78.80;100999.03;4985110;28;20356;-75
2023/09/02 06:37:56;;;;;;;0.40;0.40;;;;;;;26.14;79.77;101036.94;4985615;28;20113;-76
2023/09/02 06:40:21;;;;;;;0.30;0.20;;;;;;;25.96;82.98;101006.53;4981282;28;20517;-76
2023/09/02 06:42:47;;;;;;;0.55;0.52;;;;;;;25.73;80.64;101013.16;4985514;28;20528;-80
2023/09/02 06:45:12;;;;;;;0.20;0.20;;;;;;;25.63;79.99;100988.56;4984888;28;20096;-80
2023/09/02 06:47:38;;;;;;;0.73;0.68;;;;;;;25.95;81.77;101031.69;4987380;28;20050;-79
2023/09/02 06:50:04;;;;;;;1.85;1.55;;;;;;;25.68;82.32;101018.78;4979949;28;20479;-79
2023/09/02 06:52:30;;;;;;;0.70;0.70;;;;;;;25.85;82.68;101035.81;4987577;28;20046;-79
2023/09/02 06:54:55;;;;;;;0.75;0.75;;;;;;;25.25;83.55;100963.72;4983201;28;20642;-78
2023/09/02 06:57:20;;;;;;;0.95;0.90;;;;;;;25.69;83.62;101035.75;4987030;28;20038;-79
2023/09/02 06:59:46;;;;;;;1.38;1.13;;;;;;;25.08;82.48;100947.59;4980704;28;20061;-78
2023/09/02 07:02:11;;;;;;;0.30;0.30;;;;;;;24.53;86.25;100952.13;4985413;28;20049;-78
2023/09/02 07:04:37;;;;;;;0.52;0.50;;;;;;;24.80;85.27;100927.53;4981395;28;20031;-79
2023/09/02 07:07:02;;;;;;;0.30;0.30;;;;;;;24.90;87.07;100936.00;4986203;28;20046;-79
2023/09/02 07:09:28;;;;;;;0.10;0.10;;;;;;;25.23;89.12;101040.84;4980752;28;20056;-79
2023/09/02 07:11:55;;;;;;;0.30;0.30;;;;;;;25.22;87.96;101023.00;5018890;28;20061;-79
2023/09/02 07:14:20;;;;;;;0.95;0.95;;;;;;;24.70;89.98;101013.03;4980659;28;20030;-77
2023/09/02 07:16:46;;;;;;;0.52;0.52;;;;;;;24.41;93.43;101035.88;4979682;28;20091;-80
2023/09/02 07:19:11;;;;;;;0.20;0.20;;;;;;;23.82;96.46;100951.94;4986967;28;20514;-79
2023/09/02 07:21:36;;;;;;;0.25;0.25;;;;;;;24.37;97.14;101024.44;4986613;28;20370;-79
2023/09/02 07:24:02;;;;;;;0.43;0.43;;;;;;;24.62;95.36;101010.72;4987042;28;20052;-79
2023/09/02 07:26:32;;;;;;;1.05;0.80;;;;;;;24.34;94.08;100948.59;4983822;28;20034;-79
2023/09/02 07:28:57;;;;;;;0.20;0.20;;;;;;;24.11;91.61;100938.97;4979126;28;20153;-79
2023/09/02 07:31:23;;;;;;;1.02;0.85;;;;;;;24.49;91.78;100947.88;4983165;28;20494;-78
2023/09/02 07:33:48;;;;;;;1.95;1.85;;;;;;;24.91;92.21;101034.38;4982433;28;20058;-76
2023/09/02 07:36:14;;;;;;;0.30;0.30;;;;;;;25.45;100.00;101040.59;4981893;28;20537;-72
2023/09/02 07:38:40;;;;;;;0.95;0.43;;;;;;;25.08;100.00;100928.81;4985002;28;20050;-74
2023/09/02 07:41:07;;;;;;;1.42;0.88;;;;;;;25.86;100.00;101026.78;4987729;28;20100;-75
2023/09/02 07:43:32;;;;;;;0.65;0.63;;;;;;;25.68;94.56;100972.19;4987815;28;20046;-74
2023/09/02 07:45:58;;;;;;;0.38;0.38;;;;;;;25.27;94.46;100938.50;4984397;28;20057;-74
2023/09/02 07:48:24;;;;;;;0.47;0.47;;;;;;;25.48;90.25;100951.75;4979869;28;20602;-74
2023/09/02 07:50:49;;;;;;;0.35;0.32;;;;;;;25.67;80.91;101025.06;4979837;28;20054;-74
2023/09/02 07:53:15;;;;;;;0.93;0.73;;;;;;;25.83;91.70;101038.56;4978673;28;20093;-79
2023/09/02 07:55:40;;;;;;;2.60;1.88;;;;;;;25.48;79.24;100959.81;4979521;28;20434;-77
2023/09/02 07:58:06;;;;;;;0.20;0.20;;;;;;;25.35;87.77;100946.16;4986498;28;20046;-80
2023/09/02 08:00:35;;;;;;;1.23;1.08;;;;;;;25.97;86.33;101045.94;4986307;28;20088;-75
2023/09/02 08:03:02;;;;;;;0.70;0.40;;;;;;;26.31;86.14;101011.78;4987179;28;20073;-75
2023/09/02 08:05:27;;;;;;;0.25;0.20;;;;;;;26.47;83.94;101044.06;4979332;28;20211;-75
2023/09/02 08:07:54;;;;;;;0.85;0.77;;;;;;;25.99;78.55;100962.44;4987714;28;20759;-78
2023/09/02 08:10:19;;;;;;;1.10;1.05;;;;;;;26.25;75.74;100991.47;4978956;28;20549;-75
2023/09/02 08:12:46;;;;;;;0.75;0.50;;;;;;;26.29;68.17;101056.72;4984413;28;20074;-73
2023/09/02 08:15:12;;;;;;;0.45;0.45;;;;;;;26.32;73.23;101016.22;4980364;28;20038;-76
2023/09/02 08:17:39;;;;;;;0.43;0.43;;;;;;;25.63;73.00;100958.97;4984431;28;20173;-74
2023/09/02 08:20:06;;;;;;;0.32;0.32;;;;;;;26.51;75.90;101057.28;4982349;28;20050;-73
2023/09/02 08:22:31;;;;;;;1.42;1.33;;;;;;;26.28;73.84;100967.06;4977121;28;20065;-75
2023/09/02 08:24:57;;;;;;;1.02;0.73;;;;;;;26.61;71.88;101019.97;4984718;28;20055;-76
2023/09/02 08:27:25;;;;;;;2.47;1.77;;;;;;;26.95;71.31;101036.88;4986150;28;20050;-79
2023/09/02 08:29:50;;;;;;;0.73;0.73;;;;;;;26.21;62.81;100956.75;4984939;28;20046;-78
2023/09/02 08:32:16;;;;;;;0.80;0.70;;;;;;;26.38;65.37;101010.47;4985222;28;20412;-76
2023/09/02 08:34:41;;;;;;;0.70;0.57;;;;;;;26.66;68.38;101047.47;4987510;28;20104;-78
2023/09/02 08:37:07;;;;;;;1.42;1.33;;;;;;;26.41;68.62;100960.97;5017979;28;20042;-78
2023/09/02 08:39:32;;;;;;;0.60;0.50;;;;;;;26.46;64.42;101034.28;4985619;28;20070;-76
2023/09/02 08:41:58;;;;;;;0.40;0.40;;;;;;;26.88;66.97;101048.97;4980976;28;20144;-72
2023/09/02 08:44:29;;;;;;;0.75;0.75;;;;;;;26.71;68.17;101009.53;4984642;28;20475;-70
2023/09/02 08:46:58;;;;;;;0.80;0.55;;;;;;;26.08;63.76;100960.16;4978142;28;20045;-72
2023/09/02 08:49:24;;;;;;;0.47;0.47;;;;;;;26.67;63.69;101027.69;4982405;28;20169;-64
2023/09/02 08:51:50;;;;;;;0.52;0.52;;;;;;;26.94;64.65;101030.59;4978849;28;20038;-73
2023/09/02 08:54:17;;;;;;;1.02;0.95;;;;;;;26.79;65.84;101028.81;4985416;28;20057;-72
2023/09/02 08:56:45;;;;;;;0.60;0.60;;;;;;;26.19;65.29;100955.97;4980643;28;20650;-76
2023/09/02 08:59:10;;;;;;;1.02;0.90;;;;;;;27.10;63.00;101040.47;4973963;28;20050;-74
2023/09/02 09:01:42;;;;;;;1.63;1.52;;;;;;;26.80;60.05;101027.84;4979561;28;20053;-74
2023/09/02 09:04:08;;;;;;;1.50;1.40;;;;;;;26.69;59.49;100969.25;4986532;28;20042;-75
2023/09/02 09:06:36;;;;;;;0.32;0.32;;;;;;;26.13;59.07;100959.00;4982471;28;20117;-77
2023/09/02 09:09:02;;;;;;;0.20;0.20;;;;;;;26.20;60.01;100953.19;4977232;28;20049;-76
2023/09/02 09:11:31;;;;;;;0.93;0.85;;;;;;;26.59;58.11;100994.09;4986290;28;20084;-74
2023/09/02 09:14:01;;;;;;;0.35;0.35;;;;;;;27.09;58.38;101047.69;4981079;28;20034;-78
2023/09/02 09:16:31;;;;;;;1.75;1.45;;;;;;;26.98;58.53;101035.81;4986117;28;20145;-77
2023/09/02 09:18:57;;;;;;;0.17;0.17;;;;;;;26.76;59.41;101037.03;4987077;28;20077;-80
2023/09/02 09:21:23;;;;;;;0.22;0.22;;;;;;;26.60;60.01;100966.19;4987417;28;20053;-77
2023/09/02 09:23:49;;;;;;;0.28;0.28;;;;;;;27.14;59.67;101026.72;4983622;28;20434;-76
2023/09/02 09:26:15;;;;;;;0.88;0.70;;;;;;;27.06;66.28;101020.91;4985507;28;20050;-78
2023/09/02 09:28:54;;;;;;;0.57;0.57;;;;;;;27.25;71.61;101041.41;4977497;28;20066;-77
2023/09/02 09:31:20;;;;;;;0.57;0.57;;;;;;;26.77;70.45;100966.09;4986003;28;20046;-77
2023/09/02 09:34:00;;;;;;;0.85;0.85;;;;;;;27.28;66.03;101025.94;4975416;28;20061;-76
2023/09/02 09:36:28;;;;;;;1.15;1.05;;;;;;;26.89;62.38;100946.50;4983098;28;20063;-76
2023/09/02 09:38:55;;;;;;;0.70;0.70;;;;;;;26.90;64.79;100950.94;4988570;28;20418;-73
2023/09/02 09:41:22;;;;;;;0.40;0.35;;;;;;;27.74;60.58;101036.59;4985031;28;20445;-74
2023/09/02 09:44:07;;;;;;;0.50;0.50;;;;;;;26.96;61.19;101052.06;4982082;28;20030;-73
2023/09/02 09:46:47;;;;;;;0.20;0.20;;;;;;;26.61;61.33;100947.28;4974579;28;20061;-75
2023/09/02 09:49:25;;;;;;;1.05;0.35;;;;;;;27.66;63.58;101040.75;4979995;28;20042;-76
2023/09/02 09:51:59;;;;;;;1.30;1.02;;;;;;;27.89;60.10;101036.66;5013845;28;20648;-75
2023/09/02 09:54:34;;;;;;;1.05;0.90;;;;;;;27.30;56.36;100972.81;4980721;28;20545;-77
2023/09/02 09:56:59;;;;;;;0.10;0.10;;;;;;;27.27;59.07;100943.34;4981389;28;20045;-76
2023/09/02 09:59:25;;;;;;;0.35;0.35;;;;;;;28.26;59.50;101026.19;4988682;28;20544;-74
2023/09/02 10:01:50;;;;;;;1.25;0.80;;;;;;;28.51;55.34;101018.28;4976913;28;20104;-75
2023/09/02 10:04:16;;;;;;;1.08;0.85;;;;;;;28.02;55.00;100953.94;4986892;28;20074;-75
2023/09/02 10:06:45;;;;;;;0.40;0.40;;;;;;;27.85;54.65;100943.41;4986916;28;20046;-74
2023/09/02 10:09:10;;;;;;;2.38;2.20;;;;;;;28.18;58.29;101018.59;4981031;28;20038;-75
2023/09/02 10:11:36;;;;;;;0.68;0.68;;;;;;;27.73;58.02;100939.63;4983403;28;20073;-75
2023/09/02 10:14:04;;;;;;;8.68;1.80;;;;;;;28.01;59.05;101025.09;4988305;28;20580;-75
2023/09/02 10:16:30;;;;;;;0.17;0.17;;;;;;;27.70;56.97;100932.59;4985978;28;20085;-75
2023/09/02 10:18:58;;;;;;;0.40;0.40;;;;;;;28.15;58.41;101011.56;4980101;28;20046;-76
2023/09/02 10:21:27;;;;;;;0.28;0.28;;;;;;;29.09;55.89;101010.84;4986132;28;20100;-73
2023/09/02 10:24:01;;;;;;;0.65;0.52;;;;;;;29.60;53.45;100994.69;4983408;28;20050;-74
2023/09/02 10:26:48;;;;;;;0.43;0.30;;;;;;;29.37;52.05;100930.53;4979364;28;20042;-75
2023/09/02 10:29:16;;;;;;;1.20;1.02;;;;;;;28.92;52.90;101020.06;4985815;28;20096;-74
2023/09/02 10:31:46;;;;;;;0.50;0.50;;;;;;;29.11;53.91;101006.19;4986527;28;20033;-75
2023/09/02 10:34:31;;;;;;;0.25;0.25;;;;;;;29.05;51.57;100991.22;4988757;28;20042;-73
2023/09/02 10:36:59;;;;;;;1.52;1.42;;;;;;;29.75;51.79;101008.97;4987176;28;20121;-75
2023/09/02 10:39:51;;;;;;;0.30;0.30;;;;;;;29.74;52.60;101014.53;4985912;28;20057;-74
2023/09/02 10:42:18;;;;;;;0.57;0.47;;;;;;;29.71;51.29;101009.31;4977459;28;20089;-75
2023/09/02 10:44:45;;;;;;;1.20;1.02;;;;;;;29.00;51.82;101006.88;4984425;28;20077;-74
2023/09/02 10:47:11;;;;;;;2.38;1.20;;;;;;;29.09;52.66;101013.53;4984087;28;20113;-74
2023/09/02 10:49:37;;;;;;;0.50;0.40;;;;;;;28.71;51.68;100941.34;4985827;28;20246;-73
2023/09/02 10:52:03;;;;;;;0.47;0.40;;;;;;;29.81;50.54;100927.38;4985953;28;20105;-74
2023/09/02 10:55:04;;;;;;;0.68;0.45;;;;;;;29.49;49.85;101015.34;4987973;28;20050;-75
2023/09/02 10:57:31;;;;;;;0.43;0.43;;;;;;;29.18;50.91;101003.94;4984898;28;20055;-75
2023/09/02 11:00:15;;;;;;;0.40;0.38;;;;;;;29.81;49.70;101010.41;4987410;28;20658;-75
2023/09/02 11:02:41;;;;;;;0.38;0.38;;;;;;;30.08;49.53;100999.41;4991085;28;20569;-74
2023/09/02 11:05:08;;;;;;;0.20;0.20;;;;;;;30.33;48.27;101003.06;4990538;28;20040;-75
2023/09/02 11:07:34;;;;;;;0.63;0.57;;;;;;;30.28;48.43;101003.41;4989880;28;20105;-74
2023/09/02 11:10:01;;;;;;;0.47;0.47;;;;;;;30.20;48.27;100992.22;4987027;28;20062;-74
2023/09/02 11:12:27;;;;;;;0.77;0.73;;;;;;;29.88;48.85;100996.31;4984470;28;20072;-75
2023/09/02 11:15:07;;;;;;;0.38;0.38;;;;;;;29.71;49.05;101001.19;4989270;28;20498;-74
2023/09/02 11:17:37;;;;;;;1.20;0.50;;;;;;;30.02;50.03;100994.47;4985148;28;20051;-75
2023/09/02 11:20:03;;;;;;;1.55;0.95;;;;;;;29.79;49.58;100914.94;4990294;28;20034;-75
2023/09/02 11:22:59;;;;;;;0.20;0.20;;;;;;;30.60;47.92;100994.72;5016647;28;20035;-73